Palau, PW

1:26 AM PWT on May 31, 2015 (GMT +0900)
Guam International | | Change Station
CLOSE
Current Station
Airport
Location: Guam Agana,
Elevation: 269 ft
Nearby Weather Stations

Elev 269 ft 13.48 °N, 144.80 °E | Updated 32 minutes ago

Partly Cloudy
Partly Cloudy
80 °F
Feels Like 85 °F
N
4
Wind Variable Wind from East

Today
High -- | Low -- °F
--% Chance of Precip.
Yesterday
High -- | Low -- °F
Precip. -- in
5:43 AM 6:15 PM
Waxing Gibbous, 91% visible
Pressure 29.86 in
Visibility 10.0 miles
Clouds Few 2000 ft
Heat Index 85 °F
Dew Point 76 °F
Humidity 87%
Rainfall 0.00 in
Snow Depth Not available.
UV 0 out of 12
Pollen Not available.
Air Quality Not available.
Flu Activity
METAR PGUM 301554Z 09003KT 10SM FEW020 27/24 A2988 RMK AO2 SLP110 T02670244 $

More Conditions Fewer Conditions

Pressure 29.86 in
Visibility 10.0 miles
Clouds Few 2000 ft
Heat Index 85 °F
Dew Point 76 °F
Humidity 87%
Rainfall 0.00 in
Snow Depth Not available.
UV 0 out of 12
Pollen Not available.
Air Quality Not available.
Flu Activity
METAR PGUM 301554Z 09003KT 10SM FEW020 27/24 A2988 RMK AO2 SLP110 T02670244 $

More Conditions Fewer Conditions

10-Day Weather Forecast

Almanac

Astronomy

May. 31, 2015 Rise Set
Actual Time
Civil Twilight
Nautical Twilight
Astronomical Twilight
Moon
Length of Visible Light
Length of Day
Tomorrow will be .
, % of the Moon is Illuminated

Today's Extremes

State Highs State Lows

Community

WunderPhotos

Upload Photos

1,825,559 photos uploaded!

WunderBlogs® & News

Nearby

Air Quality

  Air Quality AQ Index Pollutant
Not available.

Snow Depth

Station Depth Elevation

Earthquake Activity

City Distance Mag. Time & Date
Minimum magnitude displayed is 2.5.

Coastal Water Temperatures

Place Temperature

Stations

Nearby Weather Stations

Station Location Temp. Windchill Dew Point Humidity Wind Precip. Elev Updated Type